Time;durP1;ratioP1;P1;durP2;ratioP2;P2;SDS_P1;SDS_P2;PMS_P1;PMS_P2;Temp;Humidity;BMP_temperature;BMP_pressure;BME280_temperature;BME280_humidity;BME280_pressure;Samples;Min_cycle;Max_cycle;Signal;HPM_P1;HPM_P2
2022/04/26 03:36:07;;;;;;;12.53;10.93;;;;;;;;;;5092583;28;20460;-71
2022/04/26 03:38:34;;;;;;;15.40;11.03;;;;;;;;;;5093452;28;20479;-71
2022/04/26 03:41:02;;;;;;;11.00;9.60;;;;;;;;;;5093305;28;20455;-71
2022/04/26 03:43:29;;;;;;;13.67;10.33;;;;;;;;;;5093057;28;20497;-71
2022/04/26 03:45:57;;;;;;;14.37;10.00;;;;;;;;;;5093050;28;20474;-71
2022/04/26 03:48:25;;;;;;;11.73;9.57;;;;;;;;;;5093104;28;20975;-71
2022/04/26 03:50:52;;;;;;;11.50;9.97;;;;;;;;;;5093181;28;20819;-71
2022/04/26 03:53:20;;;;;;;17.93;11.40;;;;;;;;;;5093096;28;20447;-71
2022/04/26 03:55:47;;;;;;;10.87;9.00;;;;;;;;;;5092937;28;20458;-71
2022/04/26 03:58:14;;;;;;;12.07;9.80;;;;;;;;;;5093008;28;20446;-71
2022/04/26 04:00:41;;;;;;;11.30;9.27;;;;;;;;;;5093091;28;20453;-71
2022/04/26 04:03:08;;;;;;;10.00;9.10;;;;;;;;;;5093167;28;20479;-71
2022/04/26 04:05:36;;;;;;;12.47;9.37;;;;;;;;;;5092747;28;20803;-71
2022/04/26 04:08:03;;;;;;;16.30;11.30;;;;;;;;;;5092892;28;20451;-71
2022/04/26 04:10:31;;;;;;;11.10;9.03;;;;;;;;;;5093095;28;20479;-71
2022/04/26 04:12:58;;;;;;;15.30;9.50;;;;;;;;;;5092830;28;20449;-71
2022/04/26 04:15:25;;;;;;;11.43;10.03;;;;;;;;;;5092752;28;20962;-71
2022/04/26 04:17:53;;;;;;;13.03;10.53;;;;;;;;;;5092879;28;20936;-71
2022/04/26 04:20:20;;;;;;;11.10;8.80;;;;;;;;;;5092702;28;20514;-71
2022/04/26 04:22:49;;;;;;;13.10;9.87;;;;;;;;;;5092247;28;20467;-71
2022/04/26 04:25:16;;;;;;;18.50;10.10;;;;;;;;;;5092537;28;20486;-71
2022/04/26 04:27:45;;;;;;;12.00;9.67;;;;;;;;;;5092745;28;20491;-71
2022/04/26 04:30:12;;;;;;;13.07;9.60;;;;;;;;;;5092681;28;20474;-71
2022/04/26 04:32:39;;;;;;;22.13;15.47;;;;;;;;;;5092727;28;20461;-71
2022/04/26 04:35:07;;;;;;;15.90;10.93;;;;;;;;;;5092464;28;20453;-72
2022/04/26 04:37:34;;;;;;;13.27;9.43;;;;;;;;;;5092654;28;20465;-71
2022/04/26 04:40:01;;;;;;;12.70;9.90;;;;;;;;;;5092486;28;20999;-71
2022/04/26 04:42:28;;;;;;;14.47;11.43;;;;;;;;;;5092757;28;20848;-71
2022/04/26 04:44:57;;;;;;;14.67;10.87;;;;;;;;;;5092247;28;20865;-72
2022/04/26 04:47:26;;;;;;;12.70;10.10;;;;;;;;;;5095205;28;20461;-71
2022/04/26 04:49:53;;;;;;;10.70;9.00;;;;;;;;;;5096355;28;20843;-72
2022/04/26 04:52:20;;;;;;;13.33;9.60;;;;;;;;;;5096223;28;20477;-71
2022/04/26 04:54:47;;;;;;;14.30;12.10;;;;;;;;;;5096070;28;20454;-71
2022/04/26 04:57:14;;;;;;;12.10;9.17;;;;;;;;;;5096282;28;20478;-72
2022/04/26 04:59:41;;;;;;;11.63;9.80;;;;;;;;;;5096156;28;20477;-72
2022/04/26 05:02:10;;;;;;;14.87;11.10;;;;;;;;;;5096113;28;20450;-70
2022/04/26 05:04:39;;;;;;;13.63;10.60;;;;;;;;;;5095834;28;20859;-72
2022/04/26 05:07:07;;;;;;;11.13;9.27;;;;;;;;;;5096267;28;20865;-71
2022/04/26 05:09:34;;;;;;;12.20;10.27;;;;;;;;;;5096060;28;20475;-71
2022/04/26 05:12:01;;;;;;;12.70;9.13;;;;;;;;;;5095925;28;20458;-72
2022/04/26 05:14:28;;;;;;;13.40;9.10;;;;;;;;;;5095828;28;20474;-71
2022/04/26 05:16:55;;;;;;;14.20;10.23;;;;;;;;;;5095824;28;20461;-71
2022/04/26 05:19:24;;;;;;;18.03;10.50;;;;;;;;;;5095832;28;20478;-71
2022/04/26 05:21:51;;;;;;;10.97;9.20;;;;;;;;;;5095520;28;20455;-71
2022/04/26 05:27:03;;;;;;;12.50;10.53;;;;;;;;;;5095681;28;21019;-72
2022/04/26 05:29:30;;;;;;;11.63;10.00;;;;;;;;;;5095651;28;20510;-72
2022/04/26 05:31:57;;;;;;;12.50;9.70;;;;;;;;;;5095631;28;20825;-71
2022/04/26 05:34:27;;;;;;;14.43;11.87;;;;;;;;;;5095490;28;20451;-71
2022/04/26 05:36:56;;;;;;;12.50;10.30;;;;;;;;;;5095503;28;20867;-71
2022/04/26 05:39:23;;;;;;;13.37;10.90;;;;;;;;;;5095510;28;20466;-72
2022/04/26 05:41:50;;;;;;;13.47;11.80;;;;;;;;;;5095315;28;20462;-71
2022/04/26 05:44:17;;;;;;;18.57;15.10;;;;;;;;;;5095056;28;20493;-71
2022/04/26 05:46:44;;;;;;;12.90;11.60;;;;;;;;;;5095417;28;20447;-71
2022/04/26 05:49:11;;;;;;;10.73;9.33;;;;;;;;;;5095117;28;20971;-72
2022/04/26 05:51:39;;;;;;;11.30;9.40;;;;;;;;;;5095332;28;20860;-71
2022/04/26 05:54:07;;;;;;;12.30;9.80;;;;;;;;;;5094981;28;20451;-71
2022/04/26 05:56:34;;;;;;;13.00;10.07;;;;;;;;;;5095298;28;20453;-71
2022/04/26 05:59:01;;;;;;;16.43;12.73;;;;;;;;;;5094117;28;20478;-71
2022/04/26 06:01:28;;;;;;;11.30;9.73;;;;;;;;;;5094990;28;20453;-71
2022/04/26 06:03:55;;;;;;;11.73;9.33;;;;;;;;;;5094525;28;20483;-72
2022/04/26 06:06:22;;;;;;;14.43;10.57;;;;;;;;;;5094672;28;20462;-72
2022/04/26 06:08:50;;;;;;;14.30;10.73;;;;;;;;;;5094829;28;20983;-71
2022/04/26 06:11:17;;;;;;;11.40;9.97;;;;;;;;;;5094815;28;20466;-71
2022/04/26 06:13:44;;;;;;;16.43;9.13;;;;;;;;;;5094744;28;20462;-72
2022/04/26 06:16:11;;;;;;;11.13;9.93;;;;;;;;;;5094991;28;20458;-71
2022/04/26 06:18:39;;;;;;;17.43;10.27;;;;;;;;;;5094714;28;21013;-71
2022/04/26 06:21:06;;;;;;;13.03;10.10;;;;;;;;;;5094555;28;20458;-71
2022/04/26 06:23:33;;;;;;;11.37;9.93;;;;;;;;;;5094065;28;20462;-71
2022/04/26 06:26:01;;;;;;;14.30;10.47;;;;;;;;;;5094462;28;20458;-71
2022/04/26 06:28:29;;;;;;;14.60;11.60;;;;;;;;;;5088908;28;20977;-72
2022/04/26 06:30:56;;;;;;;11.43;8.70;;;;;;;;;;5092686;28;20438;-71
2022/04/26 06:33:23;;;;;;;11.93;9.33;;;;;;;;;;5084510;28;20476;-72
2022/04/26 06:35:50;;;;;;;12.90;9.90;;;;;;;;;;5072584;28;20968;-72
2022/04/26 06:38:17;;;;;;;13.00;10.40;;;;;;;;;;5072690;28;20467;-71
2022/04/26 06:40:46;;;;;;;149.47;42.63;;;;;;;;;;5072613;28;20459;-71
2022/04/26 06:43:14;;;;;;;14.17;10.83;;;;;;;;;;5072962;28;20467;-71
2022/04/26 06:45:44;;;;;;;28.83;11.57;;;;;;;;;;5072664;28;20479;-72
2022/04/26 06:48:11;;;;;;;12.80;10.03;;;;;;;;;;5072350;28;20467;-71
2022/04/26 06:50:39;;;;;;;13.17;11.63;;;;;;;;;;5072833;28;20462;-71
2022/04/26 06:53:06;;;;;;;12.57;9.90;;;;;;;;;;5072514;28;20452;-72
2022/04/26 06:55:34;;;;;;;11.00;9.90;;;;;;;;;;5072764;28;20452;-71
2022/04/26 06:58:01;;;;;;;10.70;9.13;;;;;;;;;;5072293;28;20459;-72
2022/04/26 07:00:29;;;;;;;11.93;9.77;;;;;;;;;;5072526;28;20482;-72
2022/04/26 07:02:57;;;;;;;10.03;8.93;;;;;;;;;;5071965;28;20452;-72
2022/04/26 07:05:24;;;;;;;13.07;10.20;;;;;;;;;;5072153;28;20479;-71
2022/04/26 07:07:52;;;;;;;10.70;9.37;;;;;;;;;;5072270;28;20992;-72
2022/04/26 07:10:19;;;;;;;10.70;9.60;;;;;;;;;;5072307;28;21055;-71
2022/04/26 07:12:46;;;;;;;12.67;10.30;;;;;;;;;;5072051;28;20456;-72
2022/04/26 07:15:13;;;;;;;10.50;9.23;;;;;;;;;;5072093;28;20451;-72
2022/04/26 07:17:43;;;;;;;11.57;8.40;;;;;;;;;;5072401;28;20987;-72
2022/04/26 07:20:11;;;;;;;10.80;9.07;;;;;;;;;;5070899;28;20518;-72
2022/04/26 07:22:38;;;;;;;10.63;9.23;;;;;;;;;;5071544;28;20447;-71
2022/04/26 07:25:06;;;;;;;13.53;10.80;;;;;;;;;;5071724;28;20498;-71
2022/04/26 07:27:33;;;;;;;11.30;8.77;;;;;;;;;;5071755;28;20495;-71
2022/04/26 07:30:00;;;;;;;13.77;10.17;;;;;;;;;;5071799;28;20479;-71
2022/04/26 07:35:10;;;;;;;14.67;10.63;;;;;;;;;;5071460;28;20497;-71
2022/04/26 07:37:38;;;;;;;15.20;11.00;;;;;;;;;;5071999;28;20826;-71
2022/04/26 07:40:05;;;;;;;12.97;10.40;;;;;;;;;;5071708;28;20471;-71
2022/04/26 07:42:32;;;;;;;10.30;9.10;;;;;;;;;;5071550;28;20448;-72
2022/04/26 07:44:59;;;;;;;10.97;9.30;;;;;;;;;;5071324;28;20487;-72
2022/04/26 07:47:26;;;;;;;15.73;9.83;;;;;;;;;;5072041;28;20455;-72
2022/04/26 07:49:54;;;;;;;10.77;9.50;;;;;;;;;;5071698;28;20921;-71
2022/04/26 07:52:23;;;;;;;12.50;9.70;;;;;;;;;;5071656;28;20992;-71
2022/04/26 07:54:50;;;;;;;11.97;10.77;;;;;;;;;;5071686;28;20451;-71
2022/04/26 07:57:17;;;;;;;10.43;9.03;;;;;;;;;;5071689;28;20941;-71
2022/04/26 07:59:44;;;;;;;11.27;8.97;;;;;;;;;;5071957;28;20494;-72
2022/04/26 08:02:11;;;;;;;10.03;9.00;;;;;;;;;;5071344;28;20463;-72
2022/04/26 08:04:41;;;;;;;11.83;9.40;;;;;;;;;;5091171;28;20483;-72
2022/04/26 08:07:08;;;;;;;10.33;9.20;;;;;;;;;;5092053;28;20462;-73
2022/04/26 08:09:38;;;;;;;13.33;9.23;;;;;;;;;;5091634;28;20693;-72
2022/04/26 08:12:05;;;;;;;10.57;9.47;;;;;;;;;;5091473;28;20534;-72
2022/04/26 08:14:32;;;;;;;10.50;8.90;;;;;;;;;;5091909;28;20443;-72
2022/04/26 08:16:59;;;;;;;11.23;9.97;;;;;;;;;;5091562;28;20454;-72
2022/04/26 08:19:27;;;;;;;10.63;9.57;;;;;;;;;;5091850;28;20499;-72
2022/04/26 08:21:54;;;;;;;10.17;9.17;;;;;;;;;;5093423;28;20462;-72
2022/04/26 08:27:26;;;;;;;13.00;11.13;;;;;;;;;;5095079;28;20449;-72
2022/04/26 08:29:53;;;;;;;10.63;9.63;;;;;;;;;;5095460;28;20898;-72
2022/04/26 08:32:21;;;;;;;10.97;8.60;;;;;;;;;;5095576;28;20463;-72
2022/04/26 08:34:49;;;;;;;10.20;9.20;;;;;;;;;;5095334;28;20461;-71
2022/04/26 08:37:16;;;;;;;30.43;21.13;;;;;;;;;;5095204;28;20963;-72
2022/04/26 08:39:43;;;;;;;27.13;18.73;;;;;;;;;;5095566;28;20482;-72
2022/04/26 08:42:12;;;;;;;11.60;9.97;;;;;;;;;;5095645;28;20453;-71
2022/04/26 08:44:40;;;;;;;10.00;8.20;;;;;;;;;;5094892;28;21060;-72
2022/04/26 08:52:49;;;;;;;10.23;8.97;;;;;;;;;;5094848;28;20703;-71
2022/04/26 08:55:16;;;;;;;77.90;52.87;;;;;;;;;;5094605;28;20469;-72
2022/04/26 08:57:45;;;;;;;13.90;11.90;;;;;;;;;;5094949;28;20935;-72
2022/04/26 09:00:12;;;;;;;9.83;8.90;;;;;;;;;;5095275;28;20475;-72
2022/04/26 09:02:40;;;;;;;10.20;9.20;;;;;;;;;;5095010;28;20453;-72
2022/04/26 09:05:11;;;;;;;9.83;8.80;;;;;;;;;;5094432;28;20891;-72
2022/04/26 09:07:39;;;;;;;9.03;8.13;;;;;;;;;;5094725;28;20804;-73
2022/04/26 09:10:10;;;;;;;10.97;9.60;;;;;;;;;;5094394;28;20470;-72
2022/04/26 09:12:55;;;;;;;10.40;9.30;;;;;;;;;;5095005;28;20537;-72
2022/04/26 09:15:24;;;;;;;9.93;8.93;;;;;;;;;;5094397;28;20970;-72
2022/04/26 09:17:52;;;;;;;12.80;9.23;;;;;;;;;;5094212;28;20455;-72
2022/04/26 09:20:32;;;;;;;10.93;8.30;;;;;;;;;;5094481;28;20843;-72
2022/04/26 09:23:00;;;;;;;10.57;9.47;;;;;;;;;;5093845;28;20489;-72
2022/04/26 09:25:27;;;;;;;11.33;10.03;;;;;;;;;;5094333;28;20529;-72
2022/04/26 09:27:58;;;;;;;10.57;9.43;;;;;;;;;;5094100;28;20450;-72
2022/04/26 09:30:29;;;;;;;9.90;8.90;;;;;;;;;;5094346;28;20477;-72
2022/04/26 09:32:56;;;;;;;10.33;9.33;;;;;;;;;;5092863;28;20927;-72
2022/04/26 09:35:28;;;;;;;12.53;10.97;;;;;;;;;;5094010;28;20451;-72
2022/04/26 09:37:55;;;;;;;11.23;9.37;;;;;;;;;;5094671;28;20442;-72
2022/04/26 09:40:23;;;;;;;12.50;9.50;;;;;;;;;;5094571;28;20467;-72
2022/04/26 09:42:51;;;;;;;11.23;10.03;;;;;;;;;;5094036;28;20454;-72
2022/04/26 09:45:18;;;;;;;28.27;19.53;;;;;;;;;;5093910;28;20494;-73
2022/04/26 09:47:49;;;;;;;11.07;9.73;;;;;;;;;;5093211;28;20457;-72
2022/04/26 09:50:17;;;;;;;47.30;24.30;;;;;;;;;;5091882;28;20520;-72
2022/04/26 09:52:44;;;;;;;18.00;15.43;;;;;;;;;;5095139;28;20857;-72
2022/04/26 09:55:13;;;;;;;12.57;11.37;;;;;;;;;;5093720;28;20477;-73
2022/04/26 09:57:42;;;;;;;9.50;8.60;;;;;;;;;;5094220;28;20833;-72
2022/04/26 10:00:10;;;;;;;9.53;8.63;;;;;;;;;;5094897;28;20478;-72
2022/04/26 10:02:38;;;;;;;12.77;10.20;;;;;;;;;;5095092;28;20871;-72
2022/04/26 10:05:07;;;;;;;10.93;9.70;;;;;;;;;;5094663;28;20478;-72
2022/04/26 10:07:37;;;;;;;10.43;8.40;;;;;;;;;;5094948;28;20455;-72
2022/04/26 10:10:06;;;;;;;10.50;9.40;;;;;;;;;;5094833;28;20506;-72
2022/04/26 10:12:33;;;;;;;15.73;8.33;;;;;;;;;;5094834;28;20486;-72
2022/04/26 10:15:01;;;;;;;13.63;9.40;;;;;;;;;;5094500;28;20450;-72
2022/04/26 10:17:32;;;;;;;10.67;9.13;;;;;;;;;;5094714;28;20450;-72
2022/04/26 10:19:59;;;;;;;19.77;10.47;;;;;;;;;;5094635;28;20466;-72
2022/04/26 10:22:45;;;;;;;11.83;10.40;;;;;;;;;;5094246;28;20454;-72
2022/04/26 10:25:16;;;;;;;15.20;9.37;;;;;;;;;;5094507;28;20902;-72
2022/04/26 10:27:43;;;;;;;10.50;8.97;;;;;;;;;;5094675;28;20450;-72
2022/04/26 10:30:10;;;;;;;13.37;10.40;;;;;;;;;;5094371;28;20475;-72
2022/04/26 10:32:38;;;;;;;11.30;9.47;;;;;;;;;;5091601;28;20450;-72
2022/04/26 10:35:24;;;;;;;12.87;9.40;;;;;;;;;;5092607;28;20446;-73
2022/04/26 10:38:09;;;;;;;11.97;9.00;;;;;;;;;;5092979;28;21118;-73
2022/04/26 10:40:51;;;;;;;9.57;8.57;;;;;;;;;;5093100;28;20461;-73
2022/04/26 10:43:19;;;;;;;9.87;8.80;;;;;;;;;;5092574;28;20458;-72
2022/04/26 10:46:01;;;;;;;10.80;9.50;;;;;;;;;;5092333;28;20666;-72
2022/04/26 10:48:28;;;;;;;11.40;10.20;;;;;;;;;;5092542;28;20446;-72
2022/04/26 10:50:55;;;;;;;12.10;10.80;;;;;;;;;;5092637;28;20461;-72
2022/04/26 10:53:37;;;;;;;17.40;9.93;;;;;;;;;;5092909;28;20446;-73
2022/04/26 10:56:04;;;;;;;12.30;10.03;;;;;;;;;;5092290;28;20819;-72
2022/04/26 10:58:33;;;;;;;17.20;15.40;;;;;;;;;;5092530;28;20475;-72
2022/04/26 11:01:00;;;;;;;18.63;11.60;;;;;;;;;;5092431;28;20458;-73
2022/04/26 11:03:27;;;;;;;12.80;10.30;;;;;;;;;;5092468;28;20459;-75
2022/04/26 11:05:54;;;;;;;14.07;12.20;;;;;;;;;;5092509;28;20490;-72
2022/04/26 11:08:21;;;;;;;16.73;11.40;;;;;;;;;;5091391;28;20454;-72
2022/04/26 11:11:09;;;;;;;13.53;11.60;;;;;;;;;;5092318;28;20454;-72
2022/04/26 11:13:39;;;;;;;27.50;21.50;;;;;;;;;;5092319;28;20928;-73
2022/04/26 11:16:07;;;;;;;11.33;10.20;;;;;;;;;;5092252;28;20455;-73
2022/04/26 11:18:34;;;;;;;13.60;11.30;;;;;;;;;;5092430;28;20846;-75
2022/04/26 11:21:02;;;;;;;12.43;11.17;;;;;;;;;;5092179;28;20462;-76
2022/04/26 11:29:26;;;;;;;12.37;10.93;;;;;;;;;;5092047;28;20470;-72
2022/04/26 11:31:54;;;;;;;11.40;10.20;;;;;;;;;;5092281;28;20462;-72
2022/04/26 11:34:21;;;;;;;11.97;10.20;;;;;;;;;;5092015;28;20461;-72
2022/04/26 11:36:50;;;;;;;14.50;11.43;;;;;;;;;;5081822;28;20657;-72
2022/04/26 11:39:17;;;;;;;15.20;11.20;;;;;;;;;;5071613;28;20471;-73
2022/04/26 11:41:45;;;;;;;15.00;12.30;;;;;;;;;;5071656;28;20456;-73
2022/04/26 11:44:12;;;;;;;14.13;12.33;;;;;;;;;;5071255;28;20509;-73
2022/04/26 11:46:40;;;;;;;16.50;12.30;;;;;;;;;;5071502;28;20492;-72
2022/04/26 11:49:08;;;;;;;14.13;12.47;;;;;;;;;;5071503;28;20475;-73
2022/04/26 11:51:35;;;;;;;16.40;12.40;;;;;;;;;;5071575;28;20460;-72
2022/04/26 11:54:02;;;;;;;15.53;11.77;;;;;;;;;;5071267;28;20462;-73
2022/04/26 11:56:30;;;;;;;13.40;11.40;;;;;;;;;;5070671;28;20443;-72
2022/04/26 11:58:57;;;;;;;15.60;11.80;;;;;;;;;;5071469;28;20476;-73
2022/04/26 12:01:24;;;;;;;13.70;11.03;;;;;;;;;;5071461;28;20802;-72
2022/04/26 12:03:53;;;;;;;13.37;11.33;;;;;;;;;;5071099;28;20459;-72
2022/04/26 12:06:21;;;;;;;18.23;10.83;;;;;;;;;;5071386;28;20479;-72
2022/04/26 12:08:50;;;;;;;12.40;10.93;;;;;;;;;;5071322;28;20472;-72
2022/04/26 12:11:18;;;;;;;12.90;11.60;;;;;;;;;;5071947;28;20463;-73
2022/04/26 12:13:46;;;;;;;12.03;10.83;;;;;;;;;;5072445;28;20495;-73
2022/04/26 12:16:16;;;;;;;14.40;11.10;;;;;;;;;;5072211;28;20455;-72
2022/04/26 12:18:50;;;;;;;17.20;12.40;;;;;;;;;;5072542;28;21023;-72
2022/04/26 12:21:19;;;;;;;11.90;10.60;;;;;;;;;;5072589;28;20954;-72
2022/04/26 12:23:46;;;;;;;10.93;9.30;;;;;;;;;;5071999;28;20964;-73
2022/04/26 12:26:14;;;;;;;11.60;10.40;;;;;;;;;;5072331;28;20518;-72
2022/04/26 12:28:48;;;;;;;12.43;11.13;;;;;;;;;;5072351;28;20471;-72
2022/04/26 12:31:22;;;;;;;12.47;11.17;;;;;;;;;;5072417;28;20483;-72
2022/04/26 12:33:52;;;;;;;14.53;10.97;;;;;;;;;;5072124;28;20455;-72
2022/04/26 12:36:21;;;;;;;11.17;10.07;;;;;;;;;;5072589;28;20483;-72
2022/04/26 12:38:50;;;;;;;13.97;11.23;;;;;;;;;;5072397;28;20475;-72
2022/04/26 12:41:17;;;;;;;13.23;11.40;;;;;;;;;;5072271;28;20554;-73
2022/04/26 12:43:45;;;;;;;13.50;11.17;;;;;;;;;;5072283;28;20466;-72
2022/04/26 12:46:12;;;;;;;13.30;11.17;;;;;;;;;;5072321;28;20487;-73
2022/04/26 12:51:53;;;;;;;13.73;12.23;;;;;;;;;;5072245;28;20518;-73
2022/04/26 12:54:20;;;;;;;13.33;11.83;;;;;;;;;;5072096;28;20455;-72
2022/04/26 12:56:56;;;;;;;16.07;11.47;;;;;;;;;;5090028;28;20454;-72
2022/04/26 12:59:23;;;;;;;13.57;11.30;;;;;;;;;;5091966;28;20481;-72
2022/04/26 13:01:50;;;;;;;15.37;11.90;;;;;;;;;;5092101;28;20446;-72
2022/04/26 13:04:17;;;;;;;15.03;13.17;;;;;;;;;;5091952;28;20447;-72
2022/04/26 13:06:46;;;;;;;16.70;13.60;;;;;;;;;;5092258;28;20497;-72
2022/04/26 13:09:13;;;;;;;36.67;20.83;;;;;;;;;;5095831;28;20846;-72
2022/04/26 13:11:43;;;;;;;16.73;14.73;;;;;;;;;;5095860;28;20533;-72
2022/04/26 13:14:10;;;;;;;37.97;24.50;;;;;;;;;;5095576;28;20463;-72
2022/04/26 13:16:37;;;;;;;74.20;39.60;;;;;;;;;;5095604;28;20455;-72
2022/04/26 13:19:04;;;;;;;32.00;19.80;;;;;;;;;;5095482;28;20474;-72
2022/04/26 13:21:31;;;;;;;13.63;10.27;;;;;;;;;;5095516;28;20463;-72
2022/04/26 13:24:00;;;;;;;9.33;8.33;;;;;;;;;;5095177;28;20470;-72
2022/04/26 13:26:27;;;;;;;7.10;4.33;;;;;;;;;;5095366;28;20543;-71
2022/04/26 13:28:54;;;;;;;4.33;3.43;;;;;;;;;;5095261;28;20481;-73
2022/04/26 13:31:22;;;;;;;8.40;4.50;;;;;;;;;;5095190;28;20454;-72
2022/04/26 13:33:49;;;;;;;17.37;4.60;;;;;;;;;;5095012;28;20557;-72
2022/04/26 13:36:17;;;;;;;6.53;4.50;;;;;;;;;;5094953;28;20450;-72
2022/04/26 13:38:44;;;;;;;9.07;4.40;;;;;;;;;;5095121;28;20470;-73
2022/04/26 13:41:13;;;;;;;7.27;5.60;;;;;;;;;;5095084;28;20985;-72
2022/04/26 13:43:42;;;;;;;12.40;6.50;;;;;;;;;;5095030;28;20834;-72
2022/04/26 13:46:10;;;;;;;5.20;3.93;;;;;;;;;;5094899;28;20869;-72
2022/04/26 13:48:38;;;;;;;6.60;3.87;;;;;;;;;;5095264;28;21007;-73
2022/04/26 13:51:05;;;;;;;9.53;3.80;;;;;;;;;;5094725;28;20450;-73
2022/04/26 13:53:32;;;;;;;5.63;4.10;;;;;;;;;;5094817;28;20453;-73
2022/04/26 13:55:59;;;;;;;6.60;3.27;;;;;;;;;;5094591;28;20458;-73
2022/04/26 13:58:28;;;;;;;4.90;3.70;;;;;;;;;;5094832;28;20914;-73
2022/04/26 14:00:55;;;;;;;3.50;2.57;;;;;;;;;;5094744;28;20454;-72
2022/04/26 14:03:22;;;;;;;5.33;3.00;;;;;;;;;;5094876;28;20451;-73
2022/04/26 14:05:49;;;;;;;4.43;3.30;;;;;;;;;;5094320;28;20955;-72
2022/04/26 14:08:16;;;;;;;9.70;4.93;;;;;;;;;;5094424;28;20823;-72
2022/04/26 14:10:43;;;;;;;6.47;3.90;;;;;;;;;;5094567;28;20457;-72
2022/04/26 14:13:10;;;;;;;3.90;3.20;;;;;;;;;;5094367;28;20458;-72
2022/04/26 14:23:55;;;;;;;5.27;4.20;;;;;;;;;;5093728;28;20450;-72
2022/04/26 14:26:22;;;;;;;6.03;4.33;;;;;;;;;;5094051;28;21037;-72
2022/04/26 14:28:49;;;;;;;6.10;4.57;;;;;;;;;;5094155;28;20975;-72
2022/04/26 14:31:18;;;;;;;7.27;5.30;;;;;;;;;;5094135;28;20817;-72
2022/04/26 14:33:45;;;;;;;6.33;4.93;;;;;;;;;;5094022;28;20454;-72
2022/04/26 14:36:12;;;;;;;8.10;5.33;;;;;;;;;;5092532;28;20502;-72
2022/04/26 14:38:39;;;;;;;8.07;5.53;;;;;;;;;;5094175;28;20502;-72
2022/04/26 14:41:06;;;;;;;5.67;4.93;;;;;;;;;;5093719;28;20454;-72
2022/04/26 14:43:33;;;;;;;9.83;5.40;;;;;;;;;;5093841;28;20954;-72
2022/04/26 14:46:01;;;;;;;6.43;5.03;;;;;;;;;;5093603;28;21011;-72
2022/04/26 14:48:30;;;;;;;6.10;4.77;;;;;;;;;;5093744;28;20956;-73
2022/04/26 14:50:57;;;;;;;14.43;6.97;;;;;;;;;;5094192;28;20944;-73
2022/04/26 14:53:24;;;;;;;7.87;5.23;;;;;;;;;;5093715;28;20455;-73
2022/04/26 14:55:51;;;;;;;6.80;5.13;;;;;;;;;;5093415;28;20454;-72
2022/04/26 14:58:19;;;;;;;7.70;5.60;;;;;;;;;;5093539;28;20455;-72
2022/04/26 15:00:46;;;;;;;10.63;5.33;;;;;;;;;;5093695;28;20947;-72
2022/04/26 15:03:13;;;;;;;8.23;5.70;;;;;;;;;;5093406;28;20454;-72
2022/04/26 15:05:41;;;;;;;8.40;5.97;;;;;;;;;;5093427;28;20459;-72
2022/04/26 15:10:49;;;;;;;14.47;8.57;;;;;;;;;;5059491;28;20431;-72
2022/04/26 15:18:46;;;;;;;9.33;3.63;;;;;;;;;;5093391;28;20513;-72
2022/04/26 15:21:15;;;;;;;9.53;5.20;;;;;;;;;;5093282;28;20458;-72
2022/04/26 15:23:42;;;;;;;8.80;6.20;;;;;;;;;;5093008;28;20841;-72
2022/04/26 15:26:11;;;;;;;13.00;5.90;;;;;;;;;;5093126;28;20484;-72
2022/04/26 15:28:38;;;;;;;7.63;4.50;;;;;;;;;;5093328;28;20883;-72
2022/04/26 15:31:06;;;;;;;5.30;3.70;;;;;;;;;;5092185;28;20478;-72
2022/04/26 15:33:33;;;;;;;6.60;4.97;;;;;;;;;;5093124;28;20442;-72
2022/04/26 15:36:00;;;;;;;7.53;4.87;;;;;;;;;;5093078;28;20508;-73
2022/04/26 15:38:29;;;;;;;6.20;3.97;;;;;;;;;;5093134;28;20964;-72
2022/04/26 15:41:01;;;;;;;6.30;4.70;;;;;;;;;;5093049;28;20457;-73
2022/04/26 15:43:29;;;;;;;5.60;4.30;;;;;;;;;;5092942;28;20454;-73
2022/04/26 15:45:57;;;;;;;7.50;5.13;;;;;;;;;;5092958;28;20449;-72
2022/04/26 15:48:24;;;;;;;4.53;3.83;;;;;;;;;;5092961;28;20529;-72
2022/04/26 15:50:51;;;;;;;6.00;3.93;;;;;;;;;;5093020;28;20446;-72
2022/04/26 15:53:18;;;;;;;5.10;4.30;;;;;;;;;;5092886;28;20450;-73
2022/04/26 15:55:47;;;;;;;10.27;7.60;;;;;;;;;;5092833;28;20451;-72
2022/04/26 15:58:14;;;;;;;8.93;6.77;;;;;;;;;;5092734;28;20451;-72
2022/04/26 16:00:41;;;;;;;8.10;6.60;;;;;;;;;;5092982;28;20453;-72
2022/04/26 16:03:08;;;;;;;6.17;5.00;;;;;;;;;;5092808;28;20463;-72
2022/04/26 16:05:36;;;;;;;8.70;5.30;;;;;;;;;;5092554;28;20504;-72
2022/04/26 16:08:03;;;;;;;6.00;4.60;;;;;;;;;;5092641;28;20486;-72
2022/04/26 16:21:31;;;;;;;9.27;7.43;;;;;;;;;;5092468;28;20434;-72
2022/04/26 16:24:00;;;;;;;12.00;5.20;;;;;;;;;;5092269;28;20557;-72
2022/04/26 16:26:27;;;;;;;12.03;8.50;;;;;;;;;;5092695;28;20508;-72
2022/04/26 16:28:56;;;;;;;7.57;5.73;;;;;;;;;;5092572;28;20913;-72
2022/04/26 16:31:28;;;;;;;5.73;3.50;;;;;;;;;;5092689;28;20815;-72
2022/04/26 16:33:55;;;;;;;8.30;4.90;;;;;;;;;;5092444;28;20505;-72
2022/04/26 16:36:22;;;;;;;12.93;6.00;;;;;;;;;;5092685;28;20865;-72
2022/04/26 16:38:50;;;;;;;6.43;5.23;;;;;;;;;;5092476;28;20477;-71
2022/04/26 16:41:17;;;;;;;7.30;5.13;;;;;;;;;;5092491;28;20488;-71
2022/04/26 16:43:45;;;;;;;6.30;4.90;;;;;;;;;;5095988;28;20443;-72
2022/04/26 16:46:15;;;;;;;4.53;3.90;;;;;;;;;;5096203;28;20828;-72
2022/04/26 16:48:43;;;;;;;7.30;4.87;;;;;;;;;;5096233;28;20490;-71
2022/04/26 16:51:10;;;;;;;4.83;3.70;;;;;;;;;;5096182;28;20454;-72
2022/04/26 16:53:37;;;;;;;4.20;2.83;;;;;;;;;;5094769;28;20806;-72
2022/04/26 16:56:04;;;;;;;6.40;4.70;;;;;;;;;;5095897;28;20461;-72
2022/04/26 16:58:31;;;;;;;5.60;5.00;;;;;;;;;;5095893;28;20455;-72
2022/04/26 17:00:58;;;;;;;4.77;4.27;;;;;;;;;;5096019;28;20541;-72
2022/04/26 17:03:27;;;;;;;7.63;5.07;;;;;;;;;;5095997;28;20823;-72
2022/04/26 17:05:54;;;;;;;7.80;5.90;;;;;;;;;;5095872;28;20450;-72
2022/04/26 17:08:22;;;;;;;97.50;59.33;;;;;;;;;;5095617;28;20490;-71
2022/04/26 17:10:50;;;;;;;4.53;4.10;;;;;;;;;;5095887;28;20442;-71
2022/04/26 17:13:17;;;;;;;10.03;4.67;;;;;;;;;;5095675;28;20454;-72
2022/04/26 17:15:44;;;;;;;8.10;4.20;;;;;;;;;;5095607;28;20446;-71
2022/04/26 17:18:14;;;;;;;5.73;4.33;;;;;;;;;;5095414;28;20458;-71
2022/04/26 17:20:42;;;;;;;5.40;4.20;;;;;;;;;;5095841;28;20450;-71
2022/04/26 17:23:11;;;;;;;6.40;4.73;;;;;;;;;;5095134;28;20458;-71
2022/04/26 17:25:38;;;;;;;7.37;5.03;;;;;;;;;;5095439;28;20966;-72
2022/04/26 17:28:07;;;;;;;7.67;5.93;;;;;;;;;;5095186;28;20486;-72
2022/04/26 17:30:34;;;;;;;8.83;5.33;;;;;;;;;;5095339;28;20474;-72
2022/04/26 17:33:01;;;;;;;7.60;6.10;;;;;;;;;;5095262;28;20866;-71
2022/04/26 17:35:30;;;;;;;9.70;5.30;;;;;;;;;;5095273;28;20967;-72
2022/04/26 17:37:58;;;;;;;5.67;4.40;;;;;;;;;;5095084;28;20508;-72
2022/04/26 17:40:26;;;;;;;5.57;4.57;;;;;;;;;;5095169;28;20478;-72
2022/04/26 17:42:53;;;;;;;4.67;3.63;;;;;;;;;;5095459;28;20451;-71
2022/04/26 17:45:21;;;;;;;4.83;3.90;;;;;;;;;;5094859;28;20889;-71
2022/04/26 17:47:48;;;;;;;6.03;5.23;;;;;;;;;;5094947;28;20563;-71
2022/04/26 17:50:15;;;;;;;5.73;4.33;;;;;;;;;;5094881;28;20881;-71
2022/04/26 17:58:10;;;;;;;6.63;4.40;;;;;;;;;;5094473;28;20573;-72
2022/04/26 18:00:37;;;;;;;5.10;4.50;;;;;;;;;;5094738;28;20478;-72
2022/04/26 18:03:04;;;;;;;7.00;5.47;;;;;;;;;;5094481;28;20446;-72
2022/04/26 18:05:31;;;;;;;8.77;6.77;;;;;;;;;;5094510;28;20453;-72
2022/04/26 18:07:58;;;;;;;8.13;5.43;;;;;;;;;;5094404;28;20895;-72
2022/04/26 18:10:27;;;;;;;7.47;5.67;;;;;;;;;;5094728;28;20470;-72
2022/04/26 18:12:55;;;;;;;5.00;4.07;;;;;;;;;;5094343;28;20457;-72
2022/04/26 18:15:22;;;;;;;7.37;5.97;;;;;;;;;;5094387;28;20455;-72
2022/04/26 18:17:50;;;;;;;6.37;4.97;;;;;;;;;;5094455;28;20805;-72
2022/04/26 18:20:19;;;;;;;6.00;3.97;;;;;;;;;;5094393;28;20505;-72
2022/04/26 18:22:46;;;;;;;9.93;6.23;;;;;;;;;;5094185;28;20457;-72
2022/04/26 18:25:13;;;;;;;7.73;6.73;;;;;;;;;;5094045;28;20465;-72
2022/04/26 18:27:42;;;;;;;5.67;5.00;;;;;;;;;;5094206;28;20490;-72
2022/04/26 18:30:10;;;;;;;4.03;3.60;;;;;;;;;;5094115;28;20514;-72
2022/04/26 18:32:37;;;;;;;4.33;3.93;;;;;;;;;;5094066;28;20452;-71
2022/04/26 18:35:05;;;;;;;6.90;4.50;;;;;;;;;;5093924;28;20454;-72
2022/04/26 18:37:32;;;;;;;4.27;3.60;;;;;;;;;;5094261;28;20963;-72
2022/04/26 18:39:59;;;;;;;5.37;4.00;;;;;;;;;;5094097;28;20469;-72
2022/04/26 18:42:26;;;;;;;5.17;3.40;;;;;;;;;;5094243;28;20461;-72
2022/04/26 18:44:54;;;;;;;4.47;3.67;;;;;;;;;;5093935;28;20446;-72
2022/04/26 18:47:22;;;;;;;4.13;3.50;;;;;;;;;;5093973;28;20451;-72
2022/04/26 18:49:49;;;;;;;5.97;3.77;;;;;;;;;;5094231;28;20471;-72
2022/04/26 18:52:17;;;;;;;4.50;3.97;;;;;;;;;;5093834;28;20458;-72
2022/04/26 18:54:44;;;;;;;5.37;3.83;;;;;;;;;;5093709;28;20462;-72
2022/04/26 18:57:11;;;;;;;5.17;4.10;;;;;;;;;;5093681;28;20458;-72
2022/04/26 18:59:41;;;;;;;4.63;4.17;;;;;;;;;;5093755;28;20473;-72
2022/04/26 19:02:10;;;;;;;5.00;3.83;;;;;;;;;;5093738;28;20500;-72
2022/04/26 19:04:37;;;;;;;4.27;3.43;;;;;;;;;;5093394;28;20449;-73
2022/04/26 19:07:04;;;;;;;4.50;3.57;;;;;;;;;;5093502;28;20461;-72